メインページ
METAR-TAF:

METAR-TAF

空港 :

リンデン・ピンドリング国際空港

ナッソー, バハマ

緯度: 25-03N, 経度: 077-28W, 海抜: 3m

現時点の気象観測

当レポートは48分前の12:00(UTC)に作成
の風 4kt
気温 28°C
湿度 79%
気圧 1018 hPa
視程10km以上
高度2000ftの雲はほとんどない

METAR: MYNN 261200Z 09004KT 9999 FEW020 28/24 A3007

時間: 08:48 (12:48 UTC)

予報

当レポートは3時間18分前の09:30(UTC)に作成
予報は26日の 12時(UTC)から 27日の 12時(UTC)まで有効
東/南東の風 12kt
視程10km以上
高度1800ftの雲はほとんどない, 積乱雲.
高度2000ftの雲は散在している
確率 30% :
26日の 13時(UTC)から 26日の 19時(UTC)まで一時的に
高度1800ftの雲は散在している, 積乱雲.
高度1800ftの千切れ雲あり
にわか雨

TAF: MYNN 260930Z 2612/2712 12012KT 9999 FEW018CB SCT020 PROB30 TEMPO 2613/2619 SHRA SCT018CB BKN018

4,000以上の空港の気象観測と天気予報(METAR報とTAF報)

利用可能な観測所は地図上に黄色い丸と赤い丸で示す。

丸の上にカーソルを重ねると観測所名を参照できる。

次にクリックすると気象観測と天気予報を参照できる。

マップの切り替え:黒色「×」印の緑ボタンをクリックして拡大、「-」印の緑ボタンをクリックして縮小、緑色の三角印をクリックして隣りの地図に切り替え


METAR-TAF: